createdAt,value
2023-08-16T00:00:32.517Z,2.67
2023-08-16T00:03:19.198Z,2.42
2023-08-16T00:06:13.179Z,2.50
2023-08-16T00:09:00.782Z,2.72
2023-08-16T00:11:49.163Z,2.55
2023-08-16T00:14:35.962Z,2.60
2023-08-16T00:17:22.646Z,3.00
2023-08-16T00:20:11.521Z,2.97
2023-08-16T00:22:58.048Z,3.13
2023-08-16T00:25:44.661Z,2.80
2023-08-16T00:28:32.602Z,2.83
2023-08-16T00:31:20.664Z,2.70
2023-08-16T00:34:07.478Z,2.70
2023-08-16T00:36:53.863Z,2.60
2023-08-16T00:39:40.568Z,2.65
2023-08-16T00:42:27.524Z,2.33
2023-08-16T00:45:15.206Z,2.50
2023-08-16T00:48:02.105Z,2.85
2023-08-16T00:50:49.227Z,2.80
2023-08-16T00:53:38.291Z,2.72
2023-08-16T00:56:25.112Z,2.83
2023-08-16T00:59:12.412Z,2.60
2023-08-16T01:02:00.304Z,2.95
2023-08-16T01:04:48.712Z,3.00
2023-08-16T01:07:35.438Z,2.53
2023-08-16T01:10:28.004Z,2.72
2023-08-16T01:13:19.897Z,2.58
2023-08-16T01:16:09.487Z,3.10
2023-08-16T01:18:59.411Z,2.60
2023-08-16T01:21:53.400Z,2.80
2023-08-16T01:24:49.638Z,2.50
2023-08-16T01:27:37.856Z,2.83
2023-08-16T01:30:25.580Z,2.50
2023-08-16T01:33:13.298Z,2.83
2023-08-16T01:35:59.883Z,2.90
2023-08-16T01:38:47.141Z,2.40
2023-08-16T01:41:41.130Z,2.47
2023-08-16T01:44:30.127Z,2.80
2023-08-16T01:47:17.932Z,2.43
2023-08-16T01:50:05.348Z,3.20
2023-08-16T01:52:51.973Z,2.70
2023-08-16T01:55:39.149Z,2.67
2023-08-16T01:58:25.792Z,2.77
2023-08-16T02:01:14.026Z,2.45
2023-08-16T02:04:00.764Z,2.73
2023-08-16T02:06:47.367Z,3.20
2023-08-16T02:09:33.923Z,2.40
2023-08-16T02:12:20.508Z,2.77
2023-08-16T02:15:08.027Z,2.63
2023-08-16T02:17:56.001Z,3.33
2023-08-16T02:20:43.358Z,2.90
2023-08-16T02:23:30.140Z,2.63
2023-08-16T02:26:16.886Z,3.23
2023-08-16T02:29:03.872Z,3.00
2023-08-16T02:31:50.436Z,3.20
2023-08-16T02:34:38.289Z,2.93
2023-08-16T02:37:26.221Z,3.00
2023-08-16T02:40:13.857Z,2.47
2023-08-16T02:43:00.469Z,2.93
2023-08-16T02:45:47.226Z,2.37
2023-08-16T02:48:34.060Z,3.00
2023-08-16T02:51:21.992Z,2.80
2023-08-16T02:54:08.729Z,3.00
2023-08-16T02:56:55.359Z,3.30
2023-08-16T02:59:42.798Z,2.50
2023-08-16T03:02:29.908Z,2.63
2023-08-16T03:05:16.641Z,3.57
2023-08-16T03:08:04.617Z,3.63
2023-08-16T03:10:52.044Z,4.00
2023-08-16T03:13:38.978Z,3.80
2023-08-16T03:16:25.745Z,3.50
2023-08-16T03:19:12.379Z,3.63
2023-08-16T03:21:58.858Z,3.50
2023-08-16T03:24:47.945Z,3.13
2023-08-16T03:27:34.503Z,3.00
2023-08-16T03:30:21.132Z,3.43
2023-08-16T03:33:07.709Z,3.00
2023-08-16T03:35:54.619Z,3.33
2023-08-16T03:38:42.418Z,3.30
2023-08-16T03:41:30.404Z,3.23
2023-08-16T03:44:16.937Z,3.13
2023-08-16T03:47:05.078Z,3.40
2023-08-16T03:49:51.512Z,3.30
2023-08-16T03:52:38.084Z,3.50
2023-08-16T03:55:24.776Z,3.00
2023-08-16T03:58:12.841Z,3.27
2023-08-16T04:00:59.570Z,4.00
2023-08-16T04:03:46.469Z,3.60
2023-08-16T04:06:33.154Z,3.70
2023-08-16T04:09:19.730Z,3.17
2023-08-16T04:12:06.650Z,3.37
2023-08-16T04:14:54.746Z,3.20
2023-08-16T04:17:41.618Z,5.07
2023-08-16T04:20:28.467Z,11.07
2023-08-16T04:23:15.038Z,10.50
2023-08-16T04:26:02.757Z,11.80
2023-08-16T04:28:49.934Z,10.93
2023-08-16T04:31:38.500Z,7.03
2023-08-16T04:34:25.342Z,6.97
2023-08-16T04:37:12.117Z,6.97
2023-08-16T04:39:58.677Z,4.10
2023-08-16T04:42:45.733Z,4.83
2023-08-16T04:45:32.552Z,5.03
2023-08-16T04:48:20.710Z,5.97
2023-08-16T04:51:07.671Z,6.90
2023-08-16T04:53:54.482Z,5.67
2023-08-16T04:56:40.955Z,5.63
2023-08-16T04:59:27.651Z,5.10
2023-08-16T05:02:14.941Z,5.20
2023-08-16T05:05:02.753Z,5.50
2023-08-16T05:07:49.696Z,4.80
2023-08-16T05:10:36.266Z,4.40
2023-08-16T05:13:22.959Z,4.57
2023-08-16T05:16:09.604Z,4.43
2023-08-16T05:18:58.784Z,3.97
2023-08-16T05:21:46.995Z,3.90
2023-08-16T05:24:33.847Z,3.83
2023-08-16T05:27:20.419Z,3.90
2023-08-16T05:30:08.433Z,3.97
2023-08-16T05:32:56.538Z,3.90
2023-08-16T05:35:43.583Z,4.50
2023-08-16T05:38:31.543Z,4.90
2023-08-16T05:41:20.878Z,7.77
2023-08-16T05:44:07.830Z,7.80
2023-08-16T05:46:54.760Z,4.90
2023-08-16T05:49:41.900Z,4.43
2023-08-16T05:52:31.149Z,4.38
2023-08-16T05:55:22.363Z,5.20
2023-08-16T05:58:09.311Z,4.72
2023-08-16T06:00:57.159Z,4.10
2023-08-16T06:03:43.826Z,4.13
2023-08-16T06:06:30.440Z,4.10
2023-08-16T06:09:18.715Z,4.55
2023-08-16T06:12:08.854Z,4.18
2023-08-16T06:14:55.453Z,3.75
2023-08-16T06:17:42.144Z,4.53
2023-08-16T06:20:29.321Z,3.95
2023-08-16T06:23:18.643Z,4.30
2023-08-16T06:26:05.286Z,3.97
2023-08-16T06:28:53.759Z,3.78
2023-08-16T06:31:41.057Z,4.32
2023-08-16T06:34:28.318Z,3.70
2023-08-16T06:37:17.556Z,3.88
2023-08-16T06:40:06.290Z,3.72
2023-08-16T06:42:53.122Z,3.90
2023-08-16T06:45:41.248Z,3.70
2023-08-16T06:48:28.063Z,3.40
2023-08-16T06:51:14.607Z,3.67
2023-08-16T06:54:01.629Z,3.83
2023-08-16T06:56:48.515Z,3.50
2023-08-16T06:59:35.058Z,3.55
2023-08-16T07:02:23.491Z,3.40
2023-08-16T07:05:12.833Z,3.28
2023-08-16T07:07:59.762Z,3.38
2023-08-16T07:10:46.651Z,3.33
2023-08-16T07:13:33.312Z,3.30
2023-08-16T07:16:22.343Z,3.38
2023-08-16T07:19:10.741Z,3.20
2023-08-16T07:21:57.613Z,4.00
2023-08-16T07:24:44.134Z,3.22
2023-08-16T07:27:30.860Z,3.47
2023-08-16T07:30:18.742Z,3.60
2023-08-16T07:33:06.764Z,3.60
2023-08-16T07:35:55.261Z,3.35
2023-08-16T07:38:41.922Z,3.95
2023-08-16T07:41:28.698Z,3.45
2023-08-16T07:44:15.205Z,3.40
2023-08-16T07:47:02.784Z,3.63
2023-08-16T07:49:50.146Z,4.18
2023-08-16T07:52:38.238Z,4.18
2023-08-16T07:55:30.236Z,3.40
2023-08-16T07:58:17.212Z,3.80
2023-08-16T08:01:03.790Z,3.67
2023-08-16T08:03:50.583Z,4.03
2023-08-16T08:06:39.643Z,3.63
2023-08-16T08:09:28.015Z,3.67
2023-08-16T08:12:14.592Z,3.90
2023-08-16T08:15:01.125Z,3.63
2023-08-16T08:17:48.689Z,3.83
2023-08-16T08:20:35.683Z,3.78
2023-08-16T08:23:22.460Z,4.03
2023-08-16T08:26:12.045Z,3.80
2023-08-16T08:28:59.440Z,3.55
2023-08-16T08:31:46.129Z,3.75
2023-08-16T08:34:33.630Z,3.40
2023-08-16T08:37:20.708Z,3.70
2023-08-16T08:40:09.157Z,3.58
2023-08-16T08:42:59.974Z,3.45
2023-08-16T08:45:49.712Z,3.40
2023-08-16T08:48:38.721Z,3.80
2023-08-16T08:51:28.282Z,3.90
2023-08-16T08:54:14.972Z,3.63
2023-08-16T08:57:01.900Z,4.00
2023-08-16T08:59:51.528Z,3.30
2023-08-16T09:02:39.509Z,3.92
2023-08-16T09:05:26.351Z,3.72
2023-08-16T09:08:14.686Z,3.75
2023-08-16T09:11:01.887Z,3.65
2023-08-16T09:13:50.284Z,3.90
2023-08-16T09:16:38.385Z,3.22
2023-08-16T09:19:25.333Z,4.00
2023-08-16T09:22:13.113Z,3.30
2023-08-16T09:25:00.138Z,3.83
2023-08-16T09:27:47.154Z,3.47
2023-08-16T09:30:34.795Z,3.50
2023-08-16T09:33:24.315Z,3.30
2023-08-16T09:36:11.243Z,3.65
2023-08-16T09:39:02.276Z,3.30
2023-08-16T09:41:50.766Z,3.78
2023-08-16T09:44:41.224Z,3.47
2023-08-16T09:50:23.551Z,3.65
2023-08-16T09:56:20.670Z,3.30
2023-08-16T10:04:59.809Z,3.05
2023-08-16T10:07:50.275Z,3.63
2023-08-16T10:10:37.587Z,3.50
2023-08-16T10:13:25.574Z,3.47
2023-08-16T10:16:16.403Z,3.50
2023-08-16T10:19:05.883Z,3.33
2023-08-16T10:21:55.100Z,3.17
2023-08-16T10:24:50.839Z,3.28
2023-08-16T10:27:40.152Z,3.20
2023-08-16T10:30:28.194Z,2.60
2023-08-16T10:33:19.554Z,3.05
2023-08-16T10:36:08.398Z,3.80
2023-08-16T10:38:59.349Z,3.08
2023-08-16T10:41:52.506Z,2.78
2023-08-16T10:44:40.555Z,3.38
2023-08-16T10:47:31.312Z,2.90
2023-08-16T10:50:18.390Z,3.03
2023-08-16T10:53:07.595Z,3.08
2023-08-16T10:55:56.661Z,3.17
2023-08-16T10:58:50.578Z,3.20
2023-08-16T11:01:37.664Z,3.50
2023-08-16T11:04:24.525Z,3.50
2023-08-16T11:07:13.419Z,3.75
2023-08-16T11:10:02.329Z,3.30
2023-08-16T11:12:50.634Z,4.25
2023-08-16T11:15:39.342Z,3.42
2023-08-16T11:18:34.550Z,3.30
2023-08-16T11:21:22.186Z,3.75
2023-08-16T11:24:12.060Z,3.00
2023-08-16T11:26:58.887Z,3.30
2023-08-16T11:29:50.820Z,2.90
2023-08-16T11:32:41.348Z,3.35
2023-08-16T11:35:28.326Z,2.85
2023-08-16T11:38:16.614Z,3.05
2023-08-16T11:41:03.930Z,2.90
2023-08-16T11:44:01.228Z,3.10
2023-08-16T11:46:50.488Z,3.28
2023-08-16T11:49:42.418Z,2.90
2023-08-16T11:52:29.288Z,3.03
2023-08-16T11:55:17.093Z,3.20
2023-08-16T11:58:05.587Z,3.67
2023-08-16T12:00:53.151Z,3.08
2023-08-16T12:03:40.250Z,2.88
2023-08-16T12:06:28.786Z,2.95
2023-08-16T12:09:17.636Z,3.03
2023-08-16T12:12:10.057Z,3.17
2023-08-16T12:14:56.696Z,3.70
2023-08-16T12:17:43.498Z,4.13
2023-08-16T12:20:31.512Z,3.30
2023-08-16T12:23:19.664Z,3.58
2023-08-16T12:26:07.602Z,3.45
2023-08-16T12:28:56.031Z,3.60
2023-08-16T12:31:43.685Z,3.42
2023-08-16T12:34:30.528Z,2.92
2023-08-16T12:37:17.361Z,3.30
2023-08-16T12:40:06.587Z,3.97
2023-08-16T12:42:53.479Z,3.42
2023-08-16T12:45:40.415Z,3.60
2023-08-16T12:48:27.106Z,3.53
2023-08-16T12:51:17.154Z,3.80
2023-08-16T12:54:04.575Z,3.83
2023-08-16T12:59:51.608Z,3.88
2023-08-16T13:02:38.911Z,4.05
2023-08-16T13:05:33.086Z,3.67
2023-08-16T13:11:12.208Z,3.50
2023-08-16T13:14:01.222Z,3.47
2023-08-16T13:17:02.551Z,3.50
2023-08-16T13:20:02.189Z,3.85
2023-08-16T13:22:50.938Z,3.80
2023-08-16T13:28:46.118Z,4.20
2023-08-16T13:31:59.729Z,3.70
2023-08-16T13:34:57.497Z,3.65
2023-08-16T13:37:45.396Z,3.47
2023-08-16T13:40:34.372Z,3.80
2023-08-16T13:43:25.855Z,4.03
2023-08-16T13:46:13.489Z,3.60
2023-08-16T13:49:02.168Z,3.72
2023-08-16T13:51:48.968Z,3.72
2023-08-16T13:54:35.564Z,3.88
2023-08-16T13:57:23.015Z,3.80
2023-08-16T14:00:11.058Z,3.88
2023-08-16T14:02:57.683Z,3.40
2023-08-16T14:05:45.866Z,3.83
2023-08-16T14:08:32.583Z,3.80
2023-08-16T14:11:19.224Z,3.70
2023-08-16T14:14:06.026Z,3.60
2023-08-16T14:16:53.210Z,3.13
2023-08-16T14:19:40.143Z,3.58
2023-08-16T14:22:28.216Z,3.67
2023-08-16T14:25:20.999Z,4.00
2023-08-16T14:28:08.600Z,3.65
2023-08-16T14:30:55.392Z,3.60
2023-08-16T14:33:41.966Z,3.80
2023-08-16T14:36:28.688Z,3.30
2023-08-16T14:39:16.632Z,4.00
2023-08-16T14:42:08.670Z,4.05
2023-08-16T14:44:55.842Z,3.72
2023-08-16T14:47:43.079Z,3.20
2023-08-16T14:50:29.809Z,3.47
2023-08-16T14:53:16.431Z,3.80
2023-08-16T14:56:04.673Z,3.95
2023-08-16T14:58:51.448Z,3.53
2023-08-16T15:01:38.609Z,3.92
2023-08-16T15:04:27.717Z,3.90
2023-08-16T15:07:15.055Z,3.33
2023-08-16T15:10:01.975Z,3.13
2023-08-16T15:12:49.979Z,3.53
2023-08-16T15:15:37.221Z,3.45
2023-08-16T15:18:24.158Z,3.47
2023-08-16T15:21:10.888Z,3.67
2023-08-16T15:23:57.670Z,3.65
2023-08-16T15:26:44.292Z,3.67
2023-08-16T15:29:32.650Z,3.42
2023-08-16T15:32:19.253Z,3.40
2023-08-16T15:35:06.733Z,3.80
2023-08-16T15:37:53.212Z,3.72
2023-08-16T15:40:39.686Z,3.40
2023-08-16T15:43:26.671Z,3.50
2023-08-16T15:46:15.676Z,3.33
2023-08-16T15:49:02.670Z,3.00
2023-08-16T15:51:49.351Z,2.85
2023-08-16T15:54:36.002Z,2.80
2023-08-16T15:57:22.855Z,3.08
2023-08-16T16:00:11.458Z,2.92
2023-08-16T16:02:59.766Z,3.10
2023-08-16T16:05:46.713Z,3.20
2023-08-16T16:08:35.394Z,3.15
2023-08-16T16:11:23.165Z,3.00
2023-08-16T16:14:09.906Z,2.90
2023-08-16T16:17:23.592Z,3.15
2023-08-16T16:20:13.850Z,3.40
2023-08-16T16:23:01.408Z,3.17
2023-08-16T16:25:48.343Z,2.88
2023-08-16T16:28:35.193Z,3.25
2023-08-16T16:31:22.119Z,3.50
2023-08-16T16:34:08.595Z,3.20
2023-08-16T16:36:56.677Z,3.05
2023-08-16T16:39:43.435Z,2.97
2023-08-16T16:42:29.985Z,3.67
2023-08-16T16:45:16.751Z,2.75
2023-08-16T16:48:03.438Z,2.75
2023-08-16T16:50:50.110Z,3.15
2023-08-16T16:53:38.260Z,3.10
2023-08-16T16:56:25.165Z,3.25
2023-08-16T16:59:11.991Z,2.80
2023-08-16T17:01:58.542Z,2.42
2023-08-16T17:04:45.057Z,2.80
2023-08-16T17:07:32.315Z,2.78
2023-08-16T17:10:20.388Z,3.05
2023-08-16T17:13:06.828Z,2.67
2023-08-16T17:15:53.448Z,3.08
2023-08-16T17:18:40.037Z,2.80
2023-08-16T17:21:27.005Z,2.90
2023-08-16T17:24:14.413Z,2.80
2023-08-16T17:27:03.334Z,2.40
2023-08-16T17:29:50.485Z,2.72
2023-08-16T17:32:39.640Z,2.70
2023-08-16T17:35:26.471Z,3.30
2023-08-16T17:38:13.600Z,3.10
2023-08-16T17:41:00.515Z,2.70
2023-08-16T17:43:49.045Z,2.92
2023-08-16T17:46:36.484Z,2.88
2023-08-16T17:49:23.786Z,2.83
2023-08-16T17:52:11.207Z,3.33
2023-08-16T17:54:58.399Z,2.58
2023-08-16T17:57:48.413Z,2.92
2023-08-16T18:00:38.820Z,2.58
2023-08-16T18:03:25.954Z,2.33
2023-08-16T18:06:13.511Z,2.58
2023-08-16T18:09:00.186Z,2.63
2023-08-16T18:11:47.062Z,2.28
2023-08-16T18:14:34.049Z,2.47
2023-08-16T18:17:23.276Z,2.70
2023-08-16T18:20:12.185Z,2.70
2023-08-16T18:23:00.278Z,3.22
2023-08-16T18:25:46.956Z,2.40
2023-08-16T18:28:33.703Z,2.88
2023-08-16T18:31:21.046Z,2.50
2023-08-16T18:34:09.678Z,2.50
2023-08-16T18:36:56.813Z,2.80
2023-08-16T18:39:44.064Z,2.40
2023-08-16T18:42:30.962Z,2.92
2023-08-16T18:45:17.801Z,3.08
2023-08-16T18:48:05.096Z,2.90
2023-08-16T18:50:53.341Z,3.20
2023-08-16T18:53:40.661Z,2.88
2023-08-16T18:56:27.633Z,2.70
2023-08-16T18:59:16.452Z,2.60
2023-08-16T19:02:03.121Z,3.58
2023-08-16T19:04:50.355Z,3.05
2023-08-16T19:07:38.798Z,2.60
2023-08-16T19:10:25.986Z,2.80
2023-08-16T19:13:14.126Z,2.92
2023-08-16T19:16:01.190Z,2.83
2023-08-16T19:18:48.030Z,2.97
2023-08-16T19:21:36.533Z,2.95
2023-08-16T19:24:24.645Z,2.70
2023-08-16T19:27:11.840Z,3.15
2023-08-16T19:29:59.019Z,3.10
2023-08-16T19:32:45.599Z,3.10
2023-08-16T19:35:32.233Z,3.08
2023-08-16T19:38:19.154Z,3.42
2023-08-16T19:41:07.503Z,2.67
2023-08-16T19:43:58.795Z,2.92
2023-08-16T19:46:46.140Z,2.90
2023-08-16T19:49:33.016Z,2.83
2023-08-16T19:52:19.946Z,3.45
2023-08-16T19:55:07.405Z,2.80
2023-08-16T19:57:55.440Z,2.92
2023-08-16T20:00:42.428Z,2.78
2023-08-16T20:03:28.941Z,3.10
2023-08-16T20:06:15.681Z,3.17
2023-08-16T20:09:02.632Z,3.05
2023-08-16T20:11:49.463Z,2.80
2023-08-16T20:14:37.411Z,2.97
2023-08-16T20:17:25.141Z,3.20
2023-08-16T20:20:14.901Z,2.92
2023-08-16T20:23:01.709Z,3.50
2023-08-16T20:25:48.284Z,3.92
2023-08-16T20:28:34.822Z,7.30
2023-08-16T20:31:22.687Z,4.70
2023-08-16T20:34:09.435Z,3.58
2023-08-16T20:36:57.070Z,3.28
2023-08-16T20:39:44.154Z,3.50
2023-08-16T20:42:35.705Z,3.30
2023-08-16T20:45:22.910Z,3.20
2023-08-16T20:48:12.263Z,3.28
2023-08-16T20:50:59.013Z,3.55
2023-08-16T20:53:45.842Z,3.17
2023-08-16T20:56:32.650Z,3.60
2023-08-16T20:59:19.618Z,4.05
2023-08-16T21:02:06.256Z,3.28
2023-08-16T21:04:54.447Z,3.50
2023-08-16T21:07:41.108Z,3.20
2023-08-16T21:10:27.965Z,3.17
2023-08-16T21:13:16.183Z,3.38
2023-08-16T21:16:03.800Z,3.70
2023-08-16T21:18:50.439Z,3.33
2023-08-16T21:21:39.107Z,3.63
2023-08-16T21:24:25.800Z,3.72
2023-08-16T21:27:12.316Z,3.50
2023-08-16T21:29:59.281Z,3.30
2023-08-16T21:32:46.796Z,3.17
2023-08-16T21:35:34.641Z,3.20
2023-08-16T21:38:23.028Z,3.70
2023-08-16T21:41:09.675Z,3.22
2023-08-16T21:43:56.435Z,3.40
2023-08-16T21:46:44.376Z,3.30
2023-08-16T21:49:31.220Z,3.08
2023-08-16T21:52:17.796Z,3.30
2023-08-16T21:55:07.054Z,4.03
2023-08-16T21:57:53.687Z,3.22
2023-08-16T22:00:40.159Z,3.20
2023-08-16T22:03:26.892Z,3.55
2023-08-16T22:06:14.142Z,3.58
2023-08-16T22:09:01.042Z,3.65
2023-08-16T22:11:49.179Z,3.28
2023-08-16T22:14:36.007Z,3.75
2023-08-16T22:17:23.381Z,3.58
2023-08-16T22:20:13.123Z,3.63
2023-08-16T22:22:59.655Z,3.45
2023-08-16T22:25:46.296Z,3.95
2023-08-16T22:28:34.376Z,3.40
2023-08-16T22:31:20.942Z,3.60
2023-08-16T22:34:07.704Z,3.72
2023-08-16T22:36:54.381Z,3.60
2023-08-16T22:39:43.283Z,3.08
2023-08-16T22:42:32.796Z,4.20
2023-08-16T22:45:21.088Z,3.67
2023-08-16T22:48:08.457Z,3.22
2023-08-16T22:50:55.487Z,3.75
2023-08-16T22:53:42.234Z,3.67
2023-08-16T22:56:28.887Z,3.42
2023-08-16T22:59:15.603Z,3.47
2023-08-16T23:02:03.615Z,3.60
2023-08-16T23:04:50.403Z,3.72
2023-08-16T23:07:37.071Z,3.97
2023-08-16T23:10:23.921Z,3.28
2023-08-16T23:13:10.996Z,3.95
2023-08-16T23:15:57.517Z,3.85
2023-08-16T23:18:46.003Z,3.75
2023-08-16T23:21:33.037Z,3.75
2023-08-16T23:24:19.779Z,3.45
2023-08-16T23:27:06.425Z,4.13
2023-08-16T23:29:53.254Z,3.47
2023-08-16T23:32:39.990Z,3.65
2023-08-16T23:35:27.908Z,3.97
2023-08-16T23:38:14.708Z,4.53
2023-08-16T23:41:01.374Z,4.25
2023-08-16T23:43:47.874Z,3.45
2023-08-16T23:46:34.328Z,4.03
2023-08-16T23:49:21.801Z,4.10
2023-08-16T23:52:10.620Z,4.03
2023-08-16T23:54:57.315Z,4.30
2023-08-16T23:57:45.437Z,4.30
